HDAM/JIB METAR and TAF weather

Enter ICAO airport designator
Station Type Date Time Source
HDAM METAR 2019/07/17 11:00 UTC NOAA

HDAM 171100Z 25009KT 6000 SA FEW150 44/21 Q1003


Station Type Date Time Source
HDAM Decoded METAR 2019/07/17 11:00 UTC NOAA

Djibouti \ Ambouli, Djibouti (HDAM) 11-33N 043-10E
Jul 17, 2019 - 07:00 AM EDT / 2019.07.17 1100 UTC
Wind: from the WSW (250 degrees) at 10 MPH (9 KT):0
Visibility: 3 mile(s):0
Sky conditions: mostly clear
Weather: sand
Temperature: 111 F (44 C)
Heat index: 121.1 F (49.5 C):1
Dew Point: 69 F (21 C)
Relative Humidity: 27%
Pressure (altimeter): 29.62 in. Hg (1003 hPa)
ob: HDAM 171100Z 25009KT 6000 SA FEW150 44/21 Q1003
cycle: 11

Station Type Date Time Source
HDAM TAF 2019/07/17 12:57 UTC NOAA

TAF TAF HDAM 171000Z 1712/1812 27010KT 8000 HZ SCT133
BECMG 1715/1718 VRB03KT SCT133
BECMG 1800/1806 00000KT SCT133

Example: see airport list